Aviation Digital Data Service (ADDS)

Output produced by TAFs form (0144 UTC 22 November 2017)
found at http://www.aviationweather.gov/adds/tafs/
 
METAR text: RJAW 220100Z 08018KT 9999 FEW020 24/18 Q1016 RMK 2CU020 A3003
Conditions at: RJAW (IWOJIMA (JMSDF) , JP) observed 0100 UTC 22 November 2017
Temperature: 24.0°C (75°F)
Dewpoint: 18.0°C (64°F) [RH = 69%]
Pressure (altimeter): 30.00 inches Hg (1016.0 mb)
Winds: from the E (80 degrees) at 21 MPH (18 knots; 9.4 m/s)
Visibility: 6 or more miles (10+ km)
Ceiling: at least 12,000 feet AGL
Clouds: few clouds at 2000 feet AGL
Weather: no significant weather observed at this time